createdAt,value
2022-12-11T00:01:58.313Z,26.45
2022-12-11T00:04:25.021Z,24.67
2022-12-11T00:06:52.266Z,24.85
2022-12-11T00:09:20.763Z,25.20
2022-12-11T00:11:48.285Z,24.80
2022-12-11T00:14:15.858Z,24.98
2022-12-11T00:16:42.883Z,23.40
2022-12-11T00:19:09.498Z,25.40
2022-12-11T00:21:36.183Z,25.15
2022-12-11T00:24:02.900Z,25.88
2022-12-11T00:26:29.546Z,25.02
2022-12-11T00:28:56.982Z,26.35
2022-12-11T00:31:24.332Z,25.48
2022-12-11T00:33:51.276Z,26.85
2022-12-11T00:36:26.203Z,26.92
2022-12-11T00:38:53.991Z,26.63
2022-12-11T00:41:21.152Z,27.45
2022-12-11T00:43:48.014Z,26.65
2022-12-11T00:46:14.835Z,25.55
2022-12-11T00:48:41.453Z,27.15
2022-12-11T00:51:08.366Z,25.63
2022-12-11T00:53:34.977Z,27.10
2022-12-11T00:56:01.626Z,26.20
2022-12-11T00:58:28.448Z,27.15
2022-12-11T01:00:55.155Z,25.77
2022-12-11T01:03:21.927Z,28.67
2022-12-11T01:05:53.279Z,29.35
2022-12-11T01:08:20.005Z,27.98
2022-12-11T01:10:47.027Z,29.20
2022-12-11T01:13:13.804Z,29.00
2022-12-11T01:15:43.197Z,27.73
2022-12-11T01:18:12.592Z,30.85
2022-12-11T01:20:40.725Z,30.90
2022-12-11T01:23:07.350Z,29.08
2022-12-11T01:25:38.161Z,30.63
2022-12-11T01:28:05.478Z,29.80
2022-12-11T01:30:32.858Z,31.33
2022-12-11T01:33:00.674Z,28.83
2022-12-11T01:35:27.834Z,30.23
2022-12-11T01:37:54.506Z,29.00
2022-12-11T01:40:21.693Z,28.95
2022-12-11T01:42:48.534Z,28.73
2022-12-11T01:45:44.809Z,29.70
2022-12-11T01:48:16.026Z,28.05
2022-12-11T01:50:50.443Z,27.50
2022-12-11T01:53:40.274Z,29.80
2022-12-11T01:56:08.677Z,28.50
2022-12-11T01:58:49.050Z,29.48
2022-12-11T02:01:24.932Z,29.60
2022-12-11T02:03:52.813Z,26.77
2022-12-11T02:06:37.552Z,28.73
2022-12-11T02:09:14.625Z,27.60
2022-12-11T02:11:53.106Z,25.77
2022-12-11T02:14:38.478Z,26.40
2022-12-11T02:17:25.922Z,26.75
2022-12-11T02:20:01.417Z,27.13
2022-12-11T02:22:41.261Z,26.75
2022-12-11T02:25:23.879Z,27.40
2022-12-11T02:28:14.949Z,26.88
2022-12-11T02:30:43.274Z,24.98
2022-12-11T02:33:13.161Z,27.52
2022-12-11T02:35:45.642Z,26.75
2022-12-11T02:38:24.238Z,27.15
2022-12-11T02:40:53.506Z,23.08
2022-12-11T02:43:23.371Z,26.65
2022-12-11T02:45:51.630Z,25.00
2022-12-11T02:48:21.985Z,24.88
2022-12-11T02:50:52.764Z,25.95
2022-12-11T02:53:23.889Z,26.85
2022-12-11T02:55:54.450Z,26.07
2022-12-11T02:58:29.645Z,23.83
2022-12-11T03:00:56.442Z,25.55
2022-12-11T03:03:23.565Z,25.48
2022-12-11T03:05:50.261Z,24.67
2022-12-11T03:08:18.472Z,24.63
2022-12-11T03:10:45.651Z,25.00
2022-12-11T03:13:17.554Z,24.27
2022-12-11T03:16:17.274Z,22.27
2022-12-11T03:19:07.592Z,22.05
2022-12-11T03:21:52.740Z,21.08
2022-12-11T03:24:38.593Z,21.92
2022-12-11T03:27:15.702Z,21.02
2022-12-11T03:29:55.604Z,21.13
2022-12-11T03:32:27.617Z,20.50
2022-12-11T03:37:33.038Z,21.10
2022-12-11T03:40:06.311Z,19.50
2022-12-11T03:42:34.482Z,21.48
2022-12-11T03:45:04.449Z,19.60
2022-12-11T03:47:32.262Z,20.02
2022-12-11T03:50:00.634Z,17.75
2022-12-11T03:52:28.844Z,17.58
2022-12-11T03:54:59.350Z,18.20
2022-12-11T03:57:30.406Z,16.85
2022-12-11T03:59:57.293Z,17.05
2022-12-11T04:02:24.201Z,15.75
2022-12-11T04:04:51.006Z,16.08
2022-12-11T04:07:17.640Z,15.90
2022-12-11T04:09:44.245Z,15.55
2022-12-11T04:12:10.876Z,17.15
2022-12-11T04:14:56.242Z,15.52
2022-12-11T04:17:41.720Z,16.40
2022-12-11T04:20:28.745Z,16.75
2022-12-11T04:23:14.071Z,16.88
2022-12-11T04:25:40.846Z,16.95
2022-12-11T04:28:07.468Z,19.33
2022-12-11T04:30:34.628Z,17.60
2022-12-11T04:33:01.642Z,19.77
2022-12-11T04:35:28.606Z,19.65
2022-12-11T04:37:55.252Z,19.80
2022-12-11T04:40:22.772Z,19.55
2022-12-11T04:42:49.410Z,20.08
2022-12-11T04:45:16.077Z,21.38
2022-12-11T04:47:42.751Z,20.33
2022-12-11T04:50:11.360Z,19.67
2022-12-11T04:52:38.007Z,22.25
2022-12-11T04:55:08.726Z,20.63
2022-12-11T04:57:35.774Z,19.08
2022-12-11T05:00:04.886Z,20.60
2022-12-11T05:02:34.969Z,19.98
2022-12-11T05:05:03.177Z,20.50
2022-12-11T05:07:29.799Z,20.13
2022-12-11T05:09:56.450Z,19.42
2022-12-11T05:12:23.151Z,20.98
2022-12-11T05:14:53.623Z,19.70
2022-12-11T05:17:21.819Z,20.70
2022-12-11T05:19:50.846Z,20.17
2022-12-11T05:22:18.554Z,20.48
2022-12-11T05:24:45.808Z,18.67
2022-12-11T05:27:12.698Z,19.50
2022-12-11T05:29:39.367Z,18.38
2022-12-11T05:32:06.552Z,20.95
2022-12-11T05:34:33.215Z,19.23
2022-12-11T05:36:59.941Z,18.63
2022-12-11T05:39:26.622Z,20.08
2022-12-11T05:41:53.261Z,20.15
2022-12-11T05:44:19.907Z,18.73
2022-12-11T05:46:46.583Z,18.65
2022-12-11T05:49:13.222Z,18.40
2022-12-11T05:51:41.195Z,18.58
2022-12-11T05:54:07.939Z,18.25
2022-12-11T05:56:35.059Z,19.52
2022-12-11T05:59:02.797Z,19.33
2022-12-11T06:01:35.698Z,18.65
2022-12-11T06:04:04.191Z,19.15
2022-12-11T06:06:31.002Z,18.15
2022-12-11T06:08:59.270Z,19.48
2022-12-11T06:11:28.190Z,19.15
2022-12-11T06:13:55.793Z,19.63
2022-12-11T06:16:22.842Z,18.98
2022-12-11T06:18:49.652Z,18.88
2022-12-11T06:21:17.422Z,18.55
2022-12-11T06:23:45.380Z,18.65
2022-12-11T06:26:12.568Z,20.55
2022-12-11T06:28:39.368Z,19.65
2022-12-11T06:31:06.790Z,19.35
2022-12-11T06:33:33.599Z,19.95
2022-12-11T06:36:09.172Z,19.52
2022-12-11T06:38:36.193Z,20.05
2022-12-11T06:41:05.140Z,20.55
2022-12-11T06:43:32.683Z,20.77
2022-12-11T06:46:03.864Z,20.08
2022-12-11T06:48:31.369Z,19.38
2022-12-11T06:50:58.054Z,20.05
2022-12-11T06:53:24.697Z,19.42
2022-12-11T06:55:51.280Z,20.52
2022-12-11T06:58:17.936Z,19.33
2022-12-11T07:00:44.593Z,20.25
2022-12-11T07:03:11.679Z,20.60
2022-12-11T07:05:38.286Z,20.27
2022-12-11T07:08:05.126Z,20.98
2022-12-11T07:10:32.661Z,20.58
2022-12-11T07:12:59.348Z,19.50
2022-12-11T07:15:25.925Z,20.30
2022-12-11T07:17:52.507Z,20.85
2022-12-11T07:20:19.154Z,20.13
2022-12-11T07:22:46.818Z,19.02
2022-12-11T07:25:14.023Z,22.05
2022-12-11T07:27:41.576Z,21.33
2022-12-11T07:30:09.158Z,21.38
2022-12-11T07:32:35.852Z,22.60
2022-12-11T07:35:02.621Z,21.15
2022-12-11T07:37:29.272Z,21.23
2022-12-11T07:39:55.871Z,20.92
2022-12-11T07:42:22.493Z,21.33
2022-12-11T07:44:49.646Z,22.08
2022-12-11T07:47:16.278Z,21.85
2022-12-11T07:49:42.998Z,19.88
2022-12-11T07:52:10.075Z,20.73
2022-12-11T07:54:36.794Z,20.83
2022-12-11T07:57:03.516Z,20.60
2022-12-11T07:59:30.146Z,21.35
2022-12-11T08:01:56.869Z,19.45
2022-12-11T08:04:23.510Z,20.05
2022-12-11T08:06:50.174Z,20.05
2022-12-11T08:09:20.933Z,20.23
2022-12-11T08:11:51.532Z,20.47
2022-12-11T08:14:19.431Z,19.33
2022-12-11T08:16:46.163Z,21.10
2022-12-11T08:19:13.641Z,21.30
2022-12-11T08:21:40.707Z,20.95
2022-12-11T08:24:08.400Z,21.15
2022-12-11T08:26:35.077Z,21.95
2022-12-11T08:29:02.611Z,17.95
2022-12-11T08:31:29.679Z,19.75
2022-12-11T08:33:57.194Z,20.67
2022-12-11T08:36:23.947Z,20.73
2022-12-11T08:38:51.683Z,22.50
2022-12-11T08:41:30.073Z,22.15
2022-12-11T08:43:58.682Z,20.45
2022-12-11T08:46:28.232Z,20.27
2022-12-11T08:48:56.016Z,21.80
2022-12-11T08:51:25.932Z,21.25
2022-12-11T08:53:58.966Z,20.33
2022-12-11T08:56:26.914Z,19.90
2022-12-11T08:58:54.411Z,21.60
2022-12-11T09:01:27.769Z,19.88
2022-12-11T09:03:56.431Z,20.27
2022-12-11T09:06:25.624Z,20.38
2022-12-11T09:08:53.584Z,20.20
2022-12-11T09:11:23.660Z,22.17
2022-12-11T09:13:50.507Z,20.77
2022-12-11T09:16:18.922Z,20.52
2022-12-11T09:18:47.325Z,19.38
2022-12-11T09:21:17.183Z,21.10
2022-12-11T09:23:44.493Z,20.35
2022-12-11T09:26:14.335Z,20.05
2022-12-11T09:28:46.255Z,20.08
2022-12-11T09:31:16.710Z,22.63
2022-12-11T09:33:43.742Z,20.67
2022-12-11T09:36:11.722Z,21.00
2022-12-11T09:38:39.115Z,20.23
2022-12-11T09:41:20.750Z,20.83
2022-12-11T09:43:59.324Z,23.08
2022-12-11T09:46:32.051Z,23.95
2022-12-11T09:49:02.887Z,21.48
2022-12-11T09:51:42.171Z,23.02
2022-12-11T09:54:12.402Z,23.08
2022-12-11T09:56:41.891Z,21.48
2022-12-11T09:59:29.734Z,21.48
2022-12-11T10:02:57.791Z,21.70
2022-12-11T10:05:51.464Z,20.65
2022-12-11T10:08:27.141Z,20.95
2022-12-11T10:11:03.194Z,21.50
2022-12-11T10:14:01.778Z,22.25
2022-12-11T10:16:48.773Z,20.17
2022-12-11T10:19:20.312Z,19.55
2022-12-11T10:21:47.803Z,19.75
2022-12-11T10:25:10.116Z,19.17
2022-12-11T10:27:31.427Z,20.08
2022-12-11T10:30:02.387Z,19.67
2022-12-11T10:32:44.928Z,19.23
2022-12-11T10:35:26.999Z,18.67
2022-12-11T10:38:01.498Z,18.83
2022-12-11T10:40:30.665Z,18.77
2022-12-11T10:42:57.419Z,18.05
2022-12-11T10:45:24.140Z,17.48
2022-12-11T10:48:01.352Z,18.55
2022-12-11T10:50:28.012Z,15.35
2022-12-11T10:52:55.629Z,16.40
2022-12-11T10:55:34.906Z,16.73
2022-12-11T10:58:04.919Z,16.98
2022-12-11T11:00:39.104Z,16.65
2022-12-11T11:03:19.704Z,17.35
2022-12-11T11:05:49.510Z,18.13
2022-12-11T11:08:20.034Z,17.20
2022-12-11T11:10:58.822Z,16.52
2022-12-11T11:13:27.950Z,17.05
2022-12-11T11:16:04.390Z,15.93
2022-12-11T11:18:32.643Z,16.23
2022-12-11T11:21:00.594Z,16.42
2022-12-11T11:23:28.207Z,16.23
2022-12-11T11:25:56.107Z,15.80
2022-12-11T11:28:34.606Z,15.00
2022-12-11T11:31:13.890Z,16.67
2022-12-11T11:33:59.743Z,16.00
2022-12-11T11:36:31.348Z,16.10
2022-12-11T11:39:11.318Z,15.45
2022-12-11T11:41:50.575Z,14.48
2022-12-11T11:44:25.393Z,15.60
2022-12-11T11:47:10.621Z,15.70
2022-12-11T11:50:14.923Z,15.77
2022-12-11T11:53:01.085Z,16.08
2022-12-11T11:55:49.039Z,15.73
2022-12-11T11:58:22.897Z,16.05
2022-12-11T12:00:50.457Z,15.68
2022-12-11T12:03:21.556Z,15.35
2022-12-11T12:06:04.350Z,15.73
2022-12-11T12:08:57.794Z,15.32
2022-12-11T12:11:37.577Z,15.88
2022-12-11T12:14:29.136Z,16.20
2022-12-11T12:17:38.410Z,15.80
2022-12-11T12:20:42.788Z,15.45
2022-12-11T12:23:38.422Z,15.98
2022-12-11T12:26:23.158Z,15.15
2022-12-11T12:28:59.406Z,16.73
2022-12-11T12:31:58.226Z,14.07
2022-12-11T12:34:30.951Z,15.63
2022-12-11T12:37:03.326Z,16.35
2022-12-11T12:39:41.877Z,16.48
2022-12-11T12:42:32.150Z,15.73
2022-12-11T12:45:14.317Z,14.88
2022-12-11T12:47:46.661Z,16.00
2022-12-11T12:50:19.805Z,15.90
2022-12-11T12:52:47.466Z,15.70
2022-12-11T12:55:14.538Z,16.25
2022-12-11T12:57:51.703Z,16.23
2022-12-11T13:00:41.496Z,15.82
2022-12-11T13:03:26.871Z,16.58
2022-12-11T13:06:03.024Z,15.15
2022-12-11T13:08:39.886Z,16.45
2022-12-11T13:11:12.059Z,16.52
2022-12-11T13:13:42.924Z,16.52
2022-12-11T13:16:15.531Z,16.88
2022-12-11T13:18:44.722Z,17.00
2022-12-11T13:21:28.703Z,15.88
2022-12-11T13:24:12.428Z,17.33
2022-12-11T13:26:39.878Z,17.27
2022-12-11T13:29:06.498Z,16.75
2022-12-11T13:31:43.752Z,17.80
2022-12-11T13:34:21.347Z,18.35
2022-12-11T13:36:50.999Z,18.35
2022-12-11T13:39:17.607Z,19.55
2022-12-11T13:41:48.649Z,18.98
2022-12-11T13:44:30.806Z,18.60
2022-12-11T13:49:29.884Z,17.92
2022-12-11T13:51:59.178Z,18.97
2022-12-11T13:54:28.121Z,19.40
2022-12-11T13:57:20.784Z,18.13
2022-12-11T13:59:55.138Z,19.20
2022-12-11T14:02:39.269Z,18.75
2022-12-11T14:05:09.866Z,19.02
2022-12-11T14:07:41.163Z,19.13
2022-12-11T14:10:22.130Z,18.90
2022-12-11T14:12:53.738Z,18.30
2022-12-11T14:15:21.140Z,19.52
2022-12-11T14:17:51.652Z,19.20
2022-12-11T14:20:38.980Z,18.67
2022-12-11T14:23:27.795Z,19.60
2022-12-11T14:26:01.675Z,18.27
2022-12-11T14:28:35.624Z,19.35
2022-12-11T14:31:04.035Z,18.05
2022-12-11T14:33:40.386Z,19.25
2022-12-11T14:36:08.222Z,19.38
2022-12-11T14:38:55.617Z,20.10
2022-12-11T14:41:30.874Z,20.50
2022-12-11T14:44:04.311Z,22.63
2022-12-11T14:47:02.655Z,21.77
2022-12-11T14:49:33.959Z,26.83
2022-12-11T14:52:02.269Z,22.33
2022-12-11T14:54:37.763Z,21.42
2022-12-11T14:57:06.640Z,19.75
2022-12-11T14:59:40.797Z,19.88
2022-12-11T15:02:28.519Z,19.63
2022-12-11T15:05:20.497Z,19.92
2022-12-11T15:08:13.556Z,20.13
2022-12-11T15:10:44.934Z,20.98
2022-12-11T15:13:13.902Z,18.75
2022-12-11T15:15:47.671Z,20.88
2022-12-11T15:18:22.883Z,18.08
2022-12-11T15:20:56.093Z,19.05
2022-12-11T15:23:22.711Z,19.38
2022-12-11T15:25:55.437Z,20.85
2022-12-11T15:28:37.157Z,20.65
2022-12-11T15:31:07.666Z,19.30
2022-12-11T15:33:45.031Z,23.23
2022-12-11T15:36:30.355Z,21.00
2022-12-11T15:38:57.404Z,22.75
2022-12-11T15:41:24.811Z,22.38
2022-12-11T15:43:58.515Z,21.42
2022-12-11T15:46:25.463Z,22.75
2022-12-11T15:48:52.087Z,20.88
2022-12-11T15:51:18.696Z,22.25
2022-12-11T15:53:45.344Z,20.80
2022-12-11T15:56:18.321Z,21.80
2022-12-11T15:58:47.468Z,21.88
2022-12-11T16:01:14.198Z,20.33
2022-12-11T16:03:40.909Z,21.58
2022-12-11T16:06:13.250Z,20.48
2022-12-11T16:08:39.991Z,22.45
2022-12-11T16:11:06.663Z,19.75
2022-12-11T16:13:33.296Z,20.55
2022-12-11T16:16:00.008Z,20.17
2022-12-11T16:18:27.044Z,19.80
2022-12-11T16:20:53.655Z,24.60
2022-12-11T16:23:20.517Z,30.88
2022-12-11T16:25:47.279Z,30.67
2022-12-11T16:28:17.031Z,28.85
2022-12-11T16:30:44.597Z,25.48
2022-12-11T16:33:13.438Z,21.67
2022-12-11T16:35:41.445Z,23.02
2022-12-11T16:38:09.883Z,23.70
2022-12-11T16:40:37.181Z,23.08
2022-12-11T16:43:05.208Z,22.27
2022-12-11T16:45:32.463Z,20.63
2022-12-11T16:48:01.958Z,20.30
2022-12-11T16:50:28.548Z,20.60
2022-12-11T16:52:56.406Z,22.30
2022-12-11T16:55:23.039Z,24.65
2022-12-11T16:57:49.719Z,20.48
2022-12-11T17:00:16.771Z,20.42
2022-12-11T17:02:43.686Z,20.75
2022-12-11T17:05:10.994Z,18.85
2022-12-11T17:07:37.910Z,20.38
2022-12-11T17:10:05.286Z,20.27
2022-12-11T17:12:31.941Z,22.50
2022-12-11T17:14:58.752Z,33.10
2022-12-11T17:17:25.519Z,28.90
2022-12-11T17:19:52.172Z,23.73
2022-12-11T17:22:18.928Z,24.50
2022-12-11T17:24:45.622Z,23.77
2022-12-11T17:27:12.534Z,21.98
2022-12-11T17:29:39.249Z,22.17
2022-12-11T17:32:06.456Z,19.85
2022-12-11T17:34:37.879Z,18.65
2022-12-11T17:39:32.140Z,20.75
2022-12-11T17:41:58.884Z,18.90
2022-12-11T17:44:26.524Z,19.52
2022-12-11T17:46:53.671Z,19.65
2022-12-11T17:49:20.408Z,17.95
2022-12-11T17:51:47.883Z,17.48
2022-12-11T17:54:14.656Z,16.83
2022-12-11T17:56:41.391Z,16.65
2022-12-11T17:59:08.055Z,17.55
2022-12-11T18:01:34.805Z,17.65
2022-12-11T18:04:02.232Z,17.90
2022-12-11T18:06:29.382Z,17.52
2022-12-11T18:08:56.211Z,17.27
2022-12-11T18:11:23.715Z,17.02
2022-12-11T18:13:53.091Z,17.27
2022-12-11T18:16:32.718Z,18.30
2022-12-11T18:19:00.049Z,17.25
2022-12-11T18:21:30.078Z,17.75
2022-12-11T18:23:57.927Z,19.55
2022-12-11T18:26:25.007Z,18.55
2022-12-11T18:28:52.907Z,18.20
2022-12-11T18:31:21.246Z,18.05
2022-12-11T18:33:48.091Z,17.77
2022-12-11T18:36:17.194Z,17.05
2022-12-11T18:38:44.058Z,17.45
2022-12-11T18:41:12.238Z,16.85
2022-12-11T18:43:39.471Z,17.50
2022-12-11T18:46:11.719Z,18.08
2022-12-11T18:48:38.840Z,17.33
2022-12-11T18:51:08.445Z,17.98
2022-12-11T18:53:35.756Z,19.45
2022-12-11T18:56:09.958Z,18.13
2022-12-11T18:58:36.853Z,18.08
2022-12-11T19:01:07.637Z,17.85
2022-12-11T19:03:34.526Z,19.75
2022-12-11T19:06:13.509Z,20.50
2022-12-11T19:08:40.619Z,22.10
2022-12-11T19:11:07.908Z,21.67
2022-12-11T19:13:35.487Z,22.52
2022-12-11T19:16:02.383Z,22.13
2022-12-11T19:18:29.121Z,20.27
2022-12-11T19:21:06.473Z,22.15
2022-12-11T19:23:35.462Z,19.75
2022-12-11T19:26:02.395Z,19.13
2022-12-11T19:28:29.527Z,16.85
2022-12-11T19:30:56.225Z,17.58
2022-12-11T19:33:22.859Z,17.77
2022-12-11T19:35:49.444Z,17.88
2022-12-11T19:38:16.018Z,18.20
2022-12-11T19:40:43.936Z,19.55
2022-12-11T19:43:11.283Z,19.80
2022-12-11T19:45:38.254Z,20.30
2022-12-11T19:48:05.807Z,20.45
2022-12-11T19:50:34.509Z,21.92
2022-12-11T19:53:01.085Z,20.98
2022-12-11T19:55:27.700Z,21.27
2022-12-11T19:57:55.028Z,21.52
2022-12-11T20:00:21.642Z,21.20
2022-12-11T20:02:49.014Z,19.98
2022-12-11T20:05:16.114Z,19.73
2022-12-11T20:07:44.578Z,19.10
2022-12-11T20:10:12.050Z,20.05
2022-12-11T20:12:38.678Z,17.83
2022-12-11T20:15:06.100Z,19.73
2022-12-11T20:17:33.352Z,18.58
2022-12-11T20:20:00.210Z,20.25
2022-12-11T20:22:26.930Z,21.55
2022-12-11T20:24:53.582Z,20.08
2022-12-11T20:27:20.247Z,19.08
2022-12-11T20:29:46.842Z,18.63
2022-12-11T20:32:13.530Z,17.63
2022-12-11T20:34:40.232Z,16.90
2022-12-11T20:37:07.740Z,17.23
2022-12-11T20:39:35.528Z,17.08
2022-12-11T20:42:04.695Z,18.17
2022-12-11T20:44:32.085Z,19.20
2022-12-11T20:46:58.750Z,23.40
2022-12-11T20:49:25.530Z,21.17
2022-12-11T20:51:52.243Z,19.73
2022-12-11T20:54:18.963Z,18.25
2022-12-11T20:56:45.666Z,21.33
2022-12-11T20:59:13.204Z,19.73
2022-12-11T21:01:40.166Z,19.27
2022-12-11T21:04:06.899Z,18.67
2022-12-11T21:06:36.537Z,17.70
2022-12-11T21:09:06.838Z,17.27
2022-12-11T21:11:33.730Z,18.33
2022-12-11T21:14:00.334Z,16.98
2022-12-11T21:16:27.908Z,17.02
2022-12-11T21:18:56.290Z,17.63
2022-12-11T21:21:23.688Z,17.13
2022-12-11T21:23:50.682Z,16.40
2022-12-11T21:26:17.395Z,18.92
2022-12-11T21:28:44.072Z,18.25
2022-12-11T21:31:15.092Z,18.38
2022-12-11T21:33:42.015Z,16.50
2022-12-11T21:36:11.095Z,16.05
2022-12-11T21:38:38.285Z,16.80
2022-12-11T21:41:13.578Z,16.90
2022-12-11T21:44:03.225Z,16.25
2022-12-11T21:46:29.351Z,15.95
2022-12-11T21:48:56.182Z,14.82
2022-12-11T21:51:29.781Z,15.57
2022-12-11T21:54:00.897Z,15.60
2022-12-11T21:56:28.743Z,14.85
2022-12-11T21:58:55.655Z,14.15
2022-12-11T22:01:25.312Z,14.65
2022-12-11T22:03:53.477Z,15.15
2022-12-11T22:06:20.721Z,15.48
2022-12-11T22:08:49.066Z,14.45
2022-12-11T22:11:19.755Z,15.05
2022-12-11T22:13:47.174Z,14.23
2022-12-11T22:16:14.027Z,14.43
2022-12-11T22:18:40.735Z,15.38
2022-12-11T22:21:07.567Z,14.25
2022-12-11T22:23:34.234Z,14.30
2022-12-11T22:26:01.165Z,15.70
2022-12-11T22:28:27.754Z,14.43
2022-12-11T22:30:54.555Z,14.13
2022-12-11T22:33:21.819Z,15.13
2022-12-11T22:35:58.533Z,14.55
2022-12-11T22:38:25.762Z,14.43
2022-12-11T22:40:54.173Z,15.70
2022-12-11T22:43:21.588Z,14.32
2022-12-11T22:45:48.220Z,16.02
2022-12-11T22:48:14.885Z,16.15
2022-12-11T22:50:42.091Z,14.60
2022-12-11T22:53:08.832Z,16.05
2022-12-11T22:55:39.812Z,15.88
2022-12-11T22:58:06.810Z,15.82
2022-12-11T23:00:33.658Z,15.63
2022-12-11T23:03:00.696Z,15.85
2022-12-11T23:05:27.523Z,15.98
2022-12-11T23:07:54.238Z,15.93
2022-12-11T23:10:21.228Z,15.32
2022-12-11T23:12:47.935Z,14.85
2022-12-11T23:15:14.831Z,15.40
2022-12-11T23:17:41.651Z,13.65
2022-12-11T23:20:08.789Z,14.98
2022-12-11T23:22:35.517Z,15.20
2022-12-11T23:25:02.256Z,15.25
2022-12-11T23:27:29.237Z,15.43
2022-12-11T23:29:56.234Z,14.07
2022-12-11T23:32:23.035Z,14.65
2022-12-11T23:34:49.718Z,15.20
2022-12-11T23:37:16.391Z,13.38
2022-12-11T23:39:42.995Z,14.27
2022-12-11T23:42:09.639Z,15.30
2022-12-11T23:44:36.276Z,14.98
2022-12-11T23:47:03.087Z,15.18
2022-12-11T23:49:30.005Z,14.52
2022-12-11T23:51:56.786Z,14.93
2022-12-11T23:54:23.397Z,14.75
2022-12-11T23:56:50.040Z,14.93
2022-12-11T23:59:16.787Z,14.55
